Time;durP1;ratioP1;P1;durP2;ratioP2;P2;SDS_P1;SDS_P2;PMS_P1;PMS_P2;Temp;Humidity;BMP_temperature;BMP_pressure;BME280_temperature;BME280_humidity;BME280_pressure;Samples;Min_cycle;Max_cycle;Signal;HPM_P1;HPM_P2
2020/12/12 00:01:39;;;;;;;39.17;20.80;;;;;;;1.78;79.19;97739.92;2148629;82;21268;-81
2020/12/12 00:04:40;;;;;;;44.30;21.07;;;;;;;1.75;79.18;97742.41;2149061;82;21138;-81
2020/12/12 00:07:44;;;;;;;34.77;17.40;;;;;;;1.73;79.31;97741.88;2148855;82;21307;-81
2020/12/12 00:10:45;;;;;;;38.67;18.05;;;;;;;1.67;79.65;97732.28;2148532;83;21240;-81
2020/12/12 00:13:46;;;;;;;36.60;20.03;;;;;;;1.57;79.64;97728.98;2148903;82;21315;-80
2020/12/12 00:16:47;;;;;;;36.50;19.63;;;;;;;1.55;79.70;97738.36;2148904;82;21145;-81
2020/12/12 00:19:48;;;;;;;45.57;22.47;;;;;;;1.54;79.91;97728.48;2148892;82;21152;-81
2020/12/12 00:22:50;;;;;;;49.43;21.17;;;;;;;1.56;79.79;97731.10;2148845;83;21292;-81
2020/12/12 00:25:51;;;;;;;48.90;23.93;;;;;;;1.60;79.89;97734.22;2149049;82;21267;-81
2020/12/12 00:28:52;;;;;;;45.13;20.13;;;;;;;1.60;79.73;97738.08;2148403;83;21291;-81
2020/12/12 00:31:54;;;;;;;34.20;18.27;;;;;;;1.63;79.80;97742.02;2148160;83;21121;-81
2020/12/12 00:34:57;;;;;;;35.83;20.10;;;;;;;1.62;79.83;97744.14;2147922;83;21307;-80
2020/12/12 00:37:58;;;;;;;39.50;22.00;;;;;;;1.63;79.70;97738.16;2147853;83;21276;-80
2020/12/12 00:40:59;;;;;;;51.80;23.97;;;;;;;1.63;79.65;97738.58;2147495;82;21141;-81
2020/12/12 00:44:00;;;;;;;39.43;19.73;;;;;;;1.66;79.71;97743.40;2148743;83;21280;-81
2020/12/12 00:47:01;;;;;;;41.37;19.93;;;;;;;1.67;79.63;97742.57;2148511;82;21311;-79
2020/12/12 00:50:02;;;;;;;35.70;20.97;;;;;;;1.67;79.67;97749.00;2148423;82;21256;-80
2020/12/12 00:53:03;;;;;;;45.83;23.27;;;;;;;1.70;79.67;97753.36;2148503;82;21395;-79
2020/12/12 00:56:04;;;;;;;32.00;19.43;;;;;;;1.69;79.54;97753.78;2147700;83;21258;-79
2020/12/12 00:59:05;;;;;;;32.70;18.43;;;;;;;1.71;79.67;97748.27;2147999;82;21109;-80
2020/12/12 01:02:06;;;;;;;35.27;19.47;;;;;;;1.68;79.55;97753.32;2147312;82;21149;-80
2020/12/12 01:05:07;;;;;;;30.20;17.77;;;;;;;1.60;79.51;97749.23;2148550;82;21252;-80
2020/12/12 01:08:08;;;;;;;37.40;20.93;;;;;;;1.51;79.70;97748.09;2148460;83;21307;-80
2020/12/12 01:11:10;;;;;;;42.07;23.83;;;;;;;1.44;79.67;97750.03;2147879;83;21256;-80
2020/12/12 01:14:11;;;;;;;46.23;24.17;;;;;;;1.45;79.85;97754.34;2148009;82;21165;-80
2020/12/12 01:17:12;;;;;;;35.07;19.07;;;;;;;1.46;79.85;97753.52;2147848;82;21254;-80
2020/12/12 01:20:13;;;;;;;35.10;20.57;;;;;;;1.48;79.78;97757.88;2148346;83;21292;-79
2020/12/12 01:23:14;;;;;;;40.10;22.20;;;;;;;1.48;79.74;97751.86;2147948;82;21106;-79
2020/12/12 01:26:15;;;;;;;44.13;24.23;;;;;;;1.48;79.70;97750.58;2147892;82;21295;-80
2020/12/12 01:29:16;;;;;;;45.07;23.90;;;;;;;1.52;79.79;97754.98;2147596;82;21145;-79
2020/12/12 01:32:17;;;;;;;39.53;21.83;;;;;;;1.52;79.76;97755.86;2147916;82;21117;-79
2020/12/12 01:35:18;;;;;;;45.03;22.40;;;;;;;1.50;79.97;97753.66;2147613;83;21319;-79
2020/12/12 01:38:19;;;;;;;37.43;21.07;;;;;;;1.48;79.70;97750.58;2147536;82;21248;-79
2020/12/12 01:41:20;;;;;;;35.40;20.93;;;;;;;1.46;79.74;97754.39;2148399;82;21537;-79
2020/12/12 01:44:21;;;;;;;43.23;24.10;;;;;;;1.47;79.76;97755.27;2148672;82;21145;-79
2020/12/12 01:47:24;;;;;;;36.70;20.53;;;;;;;1.45;79.81;97751.36;2148458;82;21157;-79
2020/12/12 01:50:25;;;;;;;37.90;21.80;;;;;;;1.49;79.85;97753.61;2148745;83;21145;-80
2020/12/12 01:53:26;;;;;;;41.97;23.97;;;;;;;1.49;79.73;97751.91;2148842;82;21326;-80
2020/12/12 01:56:28;;;;;;;38.00;22.00;;;;;;;1.50;79.76;97748.92;2149061;83;21255;-81
2020/12/12 01:59:31;;;;;;;51.77;26.67;;;;;;;1.50;79.74;97748.92;2148859;83;21260;-80
2020/12/12 02:02:32;;;;;;;50.97;25.20;;;;;;;1.52;79.84;97749.42;2148958;83;21241;-80
2020/12/12 02:05:39;;;;;;;38.80;21.00;;;;;;;1.56;79.75;97743.55;2148964;82;21121;-81
2020/12/12 02:08:42;;;;;;;49.17;24.93;;;;;;;1.61;79.79;97743.68;2148655;82;21142;-80
2020/12/12 02:11:43;;;;;;;51.07;25.67;;;;;;;1.60;79.64;97734.22;2147947;82;21251;-80
2020/12/12 02:14:44;;;;;;;45.73;24.73;;;;;;;1.58;79.62;97738.45;2152178;82;21841;-81
2020/12/12 02:17:45;;;;;;;45.80;24.60;;;;;;;1.61;79.70;97739.82;2153775;83;21256;-79
2020/12/12 02:20:46;;;;;;;40.17;20.60;;;;;;;1.60;79.53;97740.65;2153834;83;21093;-79
2020/12/12 02:23:48;;;;;;;42.87;23.97;;;;;;;1.59;79.54;97735.05;2153778;83;21117;-79
2020/12/12 02:26:49;;;;;;;45.40;22.90;;;;;;;1.55;79.53;97748.64;2152982;82;21189;-79
2020/12/12 02:29:52;;;;;;;48.10;22.80;;;;;;;1.56;79.62;97740.98;2153011;82;21272;-79
2020/12/12 02:32:53;;;;;;;52.83;26.67;;;;;;;1.59;79.56;97733.77;2152851;83;21275;-81
2020/12/12 02:35:54;;;;;;;51.53;27.27;;;;;;;1.55;79.54;97731.93;2153118;82;21534;-80
2020/12/12 02:39:01;;;;;;;34.77;20.90;;;;;;;1.52;79.50;97730.14;2153503;83;21259;-79
2020/12/12 02:42:02;;;;;;;44.10;23.27;;;;;;;1.52;79.78;97733.12;2153288;82;21133;-79
2020/12/12 02:45:03;;;;;;;44.53;24.40;;;;;;;1.53;79.48;97727.16;2153794;83;21643;-80
2020/12/12 02:48:04;;;;;;;42.70;23.53;;;;;;;1.50;79.46;97728.34;2153935;83;21284;-80
2020/12/12 02:51:05;;;;;;;47.00;24.93;;;;;;;1.51;79.46;97722.37;2153988;83;21125;-80
2020/12/12 02:54:06;;;;;;;49.73;23.00;;;;;;;1.47;79.50;97723.11;2152545;83;21244;-79
2020/12/12 02:57:07;;;;;;;48.80;26.23;;;;;;;1.45;79.51;97723.48;2153229;83;21692;-81
2020/12/12 03:00:08;;;;;;;43.20;21.80;;;;;;;1.46;79.53;97730.37;2153438;83;21101;-80
2020/12/12 03:03:09;;;;;;;48.43;25.60;;;;;;;1.44;79.51;97720.05;2153246;83;21178;-83
2020/12/12 03:06:11;;;;;;;51.20;21.87;;;;;;;1.44;79.42;97717.88;2153400;83;21130;-80
2020/12/12 03:09:12;;;;;;;43.97;22.73;;;;;;;1.49;79.40;97720.17;2153286;83;21125;-80
2020/12/12 03:12:13;;;;;;;42.13;23.30;;;;;;;1.45;79.33;97714.48;2153780;83;21374;-80
2020/12/12 03:15:14;;;;;;;50.97;23.47;;;;;;;1.40;79.43;97716.05;2149519;82;21878;-81
2020/12/12 03:18:15;;;;;;;46.90;24.07;;;;;;;1.39;79.43;97716.46;2147431;82;21564;-81
2020/12/12 03:21:16;;;;;;;51.40;25.20;;;;;;;1.42;79.54;97723.39;2148001;82;21248;-81
2020/12/12 03:24:20;;;;;;;48.60;25.60;;;;;;;1.38;79.75;97718.99;2148532;82;21117;-80
2020/12/12 03:27:21;;;;;;;42.10;22.20;;;;;;;1.38;79.75;97730.56;2148064;83;21177;-81
2020/12/12 03:30:22;;;;;;;45.67;24.50;;;;;;;1.45;79.76;97720.50;2148231;82;21137;-81
2020/12/12 03:33:23;;;;;;;44.97;23.60;;;;;;;1.48;79.70;97724.86;2148152;82;21165;-80
2020/12/12 03:36:27;;;;;;;38.53;19.93;;;;;;;1.50;79.75;97711.63;2148324;83;21252;-80
2020/12/12 03:39:28;;;;;;;39.67;21.67;;;;;;;1.47;79.72;97712.83;2148301;83;21141;-80
2020/12/12 03:42:29;;;;;;;42.83;23.53;;;;;;;1.41;79.86;97713.94;2148209;82;21284;-79
2020/12/12 03:45:31;;;;;;;49.70;26.67;;;;;;;1.44;80.02;97711.45;2148363;82;21129;-80
2020/12/12 03:48:32;;;;;;;49.10;25.77;;;;;;;1.47;80.00;97716.69;2148165;83;21315;-80
2020/12/12 03:51:33;;;;;;;50.97;26.00;;;;;;;1.49;80.06;97724.03;2148038;82;21109;-80
2020/12/12 03:54:34;;;;;;;44.87;23.87;;;;;;;1.50;79.99;97719.34;2148089;82;21423;-79
2020/12/12 03:57:35;;;;;;;47.23;24.40;;;;;;;1.51;79.94;97717.23;2148217;82;21137;-80
2020/12/12 04:00:36;;;;;;;51.50;25.97;;;;;;;1.50;79.96;97717.65;2148392;82;21149;-80
2020/12/12 04:03:37;;;;;;;40.83;22.23;;;;;;;1.59;80.40;97714.05;2148182;83;21137;-79
2020/12/12 04:06:39;;;;;;;44.67;24.00;;;;;;;1.63;79.87;97708.59;2147510;83;21311;-79
2020/12/12 04:09:40;;;;;;;45.53;23.93;;;;;;;1.61;79.77;97714.10;2147637;83;21271;-80
2020/12/12 04:12:41;;;;;;;44.83;23.77;;;;;;;1.59;79.78;97713.19;2148393;82;21145;-80
2020/12/12 04:15:42;;;;;;;46.57;25.93;;;;;;;1.60;79.85;97711.06;2152602;82;21283;-80
2020/12/12 04:18:43;;;;;;;44.90;21.87;;;;;;;1.58;79.94;97708.87;2154002;83;21121;-80
2020/12/12 04:21:44;;;;;;;52.43;25.17;;;;;;;1.56;80.06;97711.39;2153781;83;21105;-81
2020/12/12 04:24:45;;;;;;;50.37;25.07;;;;;;;1.56;80.06;97710.52;2153712;83;21111;-82
2020/12/12 04:27:46;;;;;;;34.97;18.93;;;;;;;1.53;80.08;97710.02;2153481;83;21137;-80
2020/12/12 04:30:47;;;;;;;41.97;21.33;;;;;;;1.54;80.36;97716.04;2153106;82;21141;-80
2020/12/12 04:33:48;;;;;;;45.20;24.30;;;;;;;1.48;80.35;97714.58;2153114;83;21145;-80
2020/12/12 04:36:49;;;;;;;48.37;24.37;;;;;;;1.49;80.34;97715.91;2153333;82;21489;-80
2020/12/12 04:39:50;;;;;;;43.30;24.07;;;;;;;1.56;80.35;97719.53;2152217;83;21260;-79
2020/12/12 04:42:51;;;;;;;45.03;24.63;;;;;;;1.58;80.18;97722.59;2151509;83;21522;-81
2020/12/12 04:45:53;;;;;;;45.30;24.20;;;;;;;1.65;80.27;97726.22;2151940;83;21288;-81
2020/12/12 04:48:53;;;;;;;44.13;23.60;;;;;;;1.73;80.07;97733.74;2151894;83;21151;-80
2020/12/12 04:51:55;;;;;;;46.20;22.60;;;;;;;1.75;80.01;97730.83;2152140;83;21256;-80
2020/12/12 04:54:56;;;;;;;52.20;26.70;;;;;;;1.68;80.08;97726.31;2152057;83;21244;-83
2020/12/12 04:57:57;;;;;;;44.30;23.17;;;;;;;1.62;79.99;97720.98;2151895;83;21078;-82
2020/12/12 05:00:58;;;;;;;46.73;24.73;;;;;;;1.59;80.19;97711.90;2151480;83;21244;-81
2020/12/12 05:03:59;;;;;;;39.67;21.33;;;;;;;1.59;80.26;97709.33;2150792;83;21604;-80
2020/12/12 05:07:00;;;;;;;42.30;20.93;;;;;;;1.64;80.52;97704.31;2152112;83;21276;-82
2020/12/12 05:10:01;;;;;;;57.00;24.60;;;;;;;1.62;80.28;97700.41;2152256;83;21256;-83
2020/12/12 05:13:02;;;;;;;45.93;23.00;;;;;;;1.59;80.32;97703.77;2152077;83;21653;-81
2020/12/12 05:16:04;;;;;;;48.83;23.73;;;;;;;1.65;80.44;97704.77;2151582;82;21271;-81
2020/12/12 05:19:05;;;;;;;46.80;24.80;;;;;;;1.67;80.34;97695.39;2151687;83;21145;-81
2020/12/12 05:22:06;;;;;;;36.90;21.47;;;;;;;1.69;80.28;97693.73;2151858;83;21280;-81
2020/12/12 05:25:07;;;;;;;34.03;19.10;;;;;;;1.69;80.23;97693.32;2151693;83;21248;-80
2020/12/12 05:28:08;;;;;;;38.10;20.57;;;;;;;1.64;80.25;97701.33;2151811;83;21564;-80
2020/12/12 05:31:09;;;;;;;39.67;19.17;;;;;;;1.58;80.47;97696.88;2151734;83;21122;-80
2020/12/12 05:34:10;;;;;;;29.10;17.67;;;;;;;1.56;80.65;97693.39;2151640;83;21161;-83
2020/12/12 05:37:12;;;;;;;30.53;17.53;;;;;;;1.53;80.62;97698.86;2152198;82;21307;-81
2020/12/12 05:40:13;;;;;;;33.20;18.97;;;;;;;1.48;80.92;97702.59;2152484;82;21256;-81
2020/12/12 05:43:14;;;;;;;28.70;17.30;;;;;;;1.46;80.80;97705.95;2152384;83;21121;-81
2020/12/12 05:46:15;;;;;;;34.50;18.60;;;;;;;1.47;80.84;97707.27;2152973;83;21109;-81
2020/12/12 05:49:16;;;;;;;38.53;20.13;;;;;;;1.46;81.01;97711.09;2152377;83;21291;-84
2020/12/12 05:52:17;;;;;;;31.23;19.03;;;;;;;1.48;81.03;97717.14;2151393;83;21260;-82
2020/12/12 05:55:18;;;;;;;35.10;18.17;;;;;;;1.54;81.24;97715.63;2151519;83;21411;-78
2020/12/12 05:58:19;;;;;;;32.90;18.07;;;;;;;1.56;80.97;97716.95;2152025;83;21404;-81
2020/12/12 06:01:23;;;;;;;25.10;15.80;;;;;;;1.59;80.94;97723.47;2151721;83;21547;-79
2020/12/12 06:04:24;;;;;;;27.53;16.50;;;;;;;1.57;80.84;97719.98;2151631;83;21589;-82
2020/12/12 06:07:25;;;;;;;30.07;16.70;;;;;;;1.59;80.90;97728.62;2151211;82;21145;-81
2020/12/12 06:10:27;;;;;;;28.83;18.83;;;;;;;1.61;80.86;97729.53;2150886;83;21260;-81
2020/12/12 06:13:28;;;;;;;27.50;16.63;;;;;;;1.65;80.84;97722.78;2150970;82;21591;-79
2020/12/12 06:16:29;;;;;;;38.50;19.07;;;;;;;1.68;80.86;97718.59;2151096;82;21279;-82
2020/12/12 06:19:30;;;;;;;31.77;17.77;;;;;;;1.71;80.90;97723.82;2151023;83;21306;-81
2020/12/12 06:22:31;;;;;;;27.80;17.03;;;;;;;1.73;80.84;97725.16;2150314;83;21149;-80
2020/12/12 06:25:33;;;;;;;38.20;20.60;;;;;;;1.71;80.67;97719.96;2151109;83;21228;-81
2020/12/12 06:28:37;;;;;;;35.00;18.90;;;;;;;1.74;80.96;97717.52;2151803;82;21452;-81
2020/12/12 06:31:38;;;;;;;35.43;20.30;;;;;;;1.72;80.75;97717.84;2152220;82;21260;-83
2020/12/12 06:34:39;;;;;;;23.00;13.90;;;;;;;1.72;80.79;97713.12;2151979;83;21260;-79
2020/12/12 06:37:40;;;;;;;24.73;15.43;;;;;;;1.73;81.03;97723.45;2150984;82;21531;-80
2020/12/12 06:40:41;;;;;;;27.50;17.20;;;;;;;1.72;80.87;97715.28;2150949;83;21129;-81
2020/12/12 06:43:42;;;;;;;34.20;18.90;;;;;;;1.73;81.03;97711.88;2151225;83;21257;-81
2020/12/12 06:46:43;;;;;;;24.73;16.03;;;;;;;1.76;80.88;97717.14;2151271;82;21165;-80
2020/12/12 06:49:44;;;;;;;30.73;18.83;;;;;;;1.82;80.98;97719.88;2151495;82;21271;-80
2020/12/12 06:52:45;;;;;;;26.63;16.87;;;;;;;1.84;80.89;97713.08;2151675;83;21094;-80
2020/12/12 06:55:46;;;;;;;30.10;18.63;;;;;;;3.33;81.98;97717.67;2151622;83;21643;-80
2020/12/12 06:58:47;;;;;;;27.77;16.83;;;;;;;3.09;79.28;97725.73;2151626;83;21498;-80
2020/12/12 07:01:48;;;;;;;20.37;14.63;;;;;;;2.74;78.57;97723.19;2151699;83;21125;-81
2020/12/12 07:04:50;;;;;;;23.77;15.10;;;;;;;2.52;78.98;97726.91;2151387;83;21109;-83
2020/12/12 07:07:52;;;;;;;29.60;18.83;;;;;;;2.34;79.35;97722.98;2151215;82;21438;-81
2020/12/12 07:10:52;;;;;;;27.63;17.40;;;;;;;2.27;79.63;97724.95;2151767;83;21137;-80
2020/12/12 07:13:54;;;;;;;24.97;17.10;;;;;;;2.21;79.75;97727.81;2151973;83;21259;-80
2020/12/12 07:16:55;;;;;;;24.23;15.73;;;;;;;2.19;79.86;97735.91;2146861;82;21451;-81
2020/12/12 07:19:56;;;;;;;26.37;17.93;;;;;;;2.23;79.94;97741.60;2146803;83;21165;-82
2020/12/12 07:22:57;;;;;;;32.90;18.03;;;;;;;2.31;79.92;97749.53;2146278;82;21097;-81
2020/12/12 07:25:58;;;;;;;26.50;17.80;;;;;;;2.37;79.90;97747.53;2146253;82;21141;-82
2020/12/12 07:28:59;;;;;;;30.23;18.73;;;;;;;2.39;79.77;97746.73;2146409;82;21284;-81
2020/12/12 07:32:00;;;;;;;29.13;18.80;;;;;;;2.40;79.72;97745.91;2146473;82;21311;-81
2020/12/12 07:35:01;;;;;;;28.70;17.63;;;;;;;2.42;79.79;97745.53;2146220;83;21260;-83
2020/12/12 07:38:02;;;;;;;25.60;16.77;;;;;;;2.39;79.80;97744.58;2146526;83;21558;-82
2020/12/12 07:41:03;;;;;;;21.33;14.53;;;;;;;3.22;82.88;97745.80;2146502;82;21185;-81
2020/12/12 07:44:04;;;;;;;24.30;13.33;;;;;;;3.24;78.71;97735.11;2146861;82;21252;-80
2020/12/12 07:47:05;;;;;;;23.07;16.43;;;;;;;3.01;78.34;97734.99;2145775;82;21291;-79
2020/12/12 07:50:07;;;;;;;21.47;14.37;;;;;;;2.80;78.62;97738.80;2146058;83;21145;-80
2020/12/12 07:53:08;;;;;;;19.87;15.10;;;;;;;2.67;78.93;97735.88;2145443;82;21291;-80
2020/12/12 07:56:09;;;;;;;17.70;13.70;;;;;;;2.62;79.21;97738.77;2145154;82;21527;-82
2020/12/12 07:59:13;;;;;;;22.70;13.83;;;;;;;2.60;79.34;97737.44;2144908;82;21268;-81
2020/12/12 08:02:13;;;;;;;26.90;16.97;;;;;;;2.59;79.42;97737.36;2145064;83;21609;-80
2020/12/12 08:05:14;;;;;;;18.40;13.53;;;;;;;2.51;79.55;97740.62;2145408;82;21239;-80
2020/12/12 08:08:15;;;;;;;18.10;13.17;;;;;;;2.48;79.57;97744.41;2145351;82;21280;-80
2020/12/12 08:11:16;;;;;;;26.53;17.33;;;;;;;2.47;79.69;97744.36;2145440;83;21129;-80
2020/12/12 08:14:18;;;;;;;18.53;14.07;;;;;;;2.53;79.70;97743.23;2145838;82;21807;-81
2020/12/12 08:17:20;;;;;;;21.43;14.83;;;;;;;2.71;82.01;97743.73;2093895;84;21577;-81
2020/12/12 08:20:24;;;;;;;15.70;12.10;;;;;;;3.00;79.27;97746.14;2093375;85;21112;-80
2020/12/12 08:23:24;;;;;;;19.83;14.03;;;;;;;2.83;78.89;97741.88;2093639;84;21566;-80
2020/12/12 08:26:25;;;;;;;19.37;14.50;;;;;;;2.73;79.04;97740.77;2093421;85;21266;-81
2020/12/12 08:29:26;;;;;;;17.30;13.10;;;;;;;2.68;79.13;97740.20;2093669;85;21175;-80
2020/12/12 08:32:27;;;;;;;19.53;14.10;;;;;;;2.66;79.37;97738.88;2094394;85;21144;-81
2020/12/12 08:35:28;;;;;;;17.63;11.90;;;;;;;4.35;82.62;97736.17;2094777;85;21132;-80
2020/12/12 08:38:29;;;;;;;15.43;10.90;;;;;;;4.22;75.96;97739.34;2094244;85;21171;-79
2020/12/12 08:41:30;;;;;;;19.47;13.17;;;;;;;3.64;75.88;97743.33;2094686;85;21120;-81
2020/12/12 08:44:31;;;;;;;15.87;12.37;;;;;;;3.29;76.85;97742.53;2094129;85;21267;-81
2020/12/12 08:47:32;;;;;;;17.77;13.90;;;;;;;3.08;77.42;97752.34;2094240;85;21313;-81
2020/12/12 08:50:34;;;;;;;16.47;12.77;;;;;;;2.99;77.66;97754.71;2094043;85;21485;-81
2020/12/12 08:53:35;;;;;;;18.03;13.40;;;;;;;2.88;77.96;97757.03;2093992;85;21278;-80
2020/12/12 08:56:36;;;;;;;15.67;12.60;;;;;;;2.87;78.24;97756.58;2093619;84;21329;-81
2020/12/12 08:59:37;;;;;;;17.77;13.10;;;;;;;2.95;78.37;97761.50;2093473;85;21282;-81
2020/12/12 09:02:38;;;;;;;16.80;13.40;;;;;;;3.02;78.33;97750.50;2095144;85;21152;-83
2020/12/12 09:05:39;;;;;;;18.03;13.10;;;;;;;5.79;86.58;97739.33;2095560;85;21171;-82
2020/12/12 09:08:40;;;;;;;19.00;13.77;;;;;;;9.26;81.00;97735.16;2094433;85;21179;-82
2020/12/12 09:11:41;;;;;;;14.60;11.60;;;;;;;11.37;74.65;97731.22;2094609;85;21147;-81
2020/12/12 09:14:42;;;;;;;14.60;11.77;;;;;;;11.00;63.94;97734.98;2096218;82;21116;-80
2020/12/12 09:17:44;;;;;;;8.87;7.47;;;;;;;8.57;61.25;97738.13;2145671;82;21464;-83
2020/12/12 09:20:45;;;;;;;17.63;12.67;;;;;;;7.01;69.09;97746.78;2145615;82;21146;-81
2020/12/12 09:23:46;;;;;;;13.90;11.60;;;;;;;9.50;72.33;97733.41;2145236;82;21102;-81
2020/12/12 09:26:47;;;;;;;15.70;11.50;;;;;;;9.09;63.10;97726.93;2145706;82;21165;-80
2020/12/12 09:29:48;;;;;;;14.07;12.10;;;;;;;7.95;62.90;97730.09;2145157;83;21382;-80
2020/12/12 09:32:50;;;;;;;15.93;12.43;;;;;;;6.59;64.39;97734.27;2145679;82;21275;-80
2020/12/12 09:35:51;;;;;;;12.97;11.47;;;;;;;5.04;68.65;97727.01;2145782;82;21129;-80
2020/12/12 09:38:52;;;;;;;13.97;11.83;;;;;;;5.04;68.65;97727.01;2145752;82;21415;-79
2020/12/12 09:41:53;;;;;;;15.53;12.17;;;;;;;4.63;69.25;97725.91;2145400;83;21260;-79
2020/12/12 09:44:54;;;;;;;15.37;12.37;;;;;;;4.33;70.12;97727.92;2145185;82;21134;-80
2020/12/12 09:47:55;;;;;;;16.00;12.23;;;;;;;4.17;71.04;97728.05;2145149;82;21185;-81
2020/12/12 09:50:56;;;;;;;13.47;11.37;;;;;;;4.08;71.62;97726.59;2145588;82;21114;-80
2020/12/12 09:53:58;;;;;;;16.33;13.33;;;;;;;3.99;72.22;97723.41;2144898;83;21276;-80
2020/12/12 09:56:59;;;;;;;16.57;12.73;;;;;;;3.88;72.55;97726.19;2145369;83;21255;-79
2020/12/12 10:00:00;;;;;;;15.73;11.70;;;;;;;3.79;72.86;97727.30;2144973;82;21255;-81
2020/12/12 10:03:01;;;;;;;14.20;11.60;;;;;;;3.73;73.32;97722.02;2144217;83;21133;-79
2020/12/12 10:06:02;;;;;;;16.10;12.53;;;;;;;3.72;73.44;97726.72;2145649;82;21294;-80
2020/12/12 10:09:03;;;;;;;15.30;12.70;;;;;;;3.65;73.70;97723.56;2145144;83;21185;-82
2020/12/12 10:12:04;;;;;;;18.57;14.13;;;;;;;3.60;74.17;97709.69;2146035;83;21129;-80
2020/12/12 10:15:05;;;;;;;17.33;13.53;;;;;;;3.58;74.55;97712.66;2145355;82;21247;-79
2020/12/12 10:18:08;;;;;;;20.07;14.70;;;;;;;3.56;74.53;97713.92;2145318;82;21177;-79
2020/12/12 10:21:09;;;;;;;17.37;13.63;;;;;;;3.56;74.67;97721.66;2144998;82;21260;-81
2020/12/12 10:24:10;;;;;;;19.57;14.63;;;;;;;3.60;74.85;97706.69;2144626;82;21248;-80
2020/12/12 10:27:11;;;;;;;16.67;13.10;;;;;;;3.59;74.82;97715.27;2145184;82;21288;-80
2020/12/12 10:30:13;;;;;;;14.90;12.13;;;;;;;3.61;74.88;97709.72;2145301;82;21259;-79
2020/12/12 10:33:14;;;;;;;18.07;12.93;;;;;;;3.64;74.95;97712.78;2144560;82;21264;-80
2020/12/12 10:36:15;;;;;;;16.43;12.93;;;;;;;3.67;74.75;97704.69;2145332;83;21839;-80
2020/12/12 10:39:25;;;;;;;17.47;13.40;;;;;;;3.76;74.90;97706.59;2144926;82;21123;-80
2020/12/12 10:42:18;;;;;;;15.47;11.37;;;;;;;3.78;74.90;97711.36;2144004;83;21821;-80
2020/12/12 10:45:20;;;;;;;15.60;12.90;;;;;;;3.75;74.68;97710.01;2145384;82;21275;-81
2020/12/12 10:48:22;;;;;;;14.67;11.63;;;;;;;3.68;74.85;97703.84;2144167;82;21291;-81
2020/12/12 10:51:24;;;;;;;14.40;12.00;;;;;;;3.71;75.92;97703.91;2144955;83;21268;-81
2020/12/12 10:54:26;;;;;;;14.03;12.27;;;;;;;3.78;74.99;97710.06;2144842;82;21621;-80
2020/12/12 10:57:27;;;;;;;15.43;12.87;;;;;;;3.79;75.05;97715.68;2145958;82;21466;-81
2020/12/12 11:00:29;;;;;;;16.77;12.87;;;;;;;3.77;74.88;97708.33;2145797;82;21321;-84
2020/12/12 11:03:30;;;;;;;14.87;12.17;;;;;;;3.77;74.92;97718.66;2144732;82;21292;-79
2020/12/12 11:06:32;;;;;;;18.33;13.43;;;;;;;3.76;74.90;97716.49;2143724;82;21141;-80
2020/12/12 11:09:33;;;;;;;14.37;12.30;;;;;;;3.78;74.96;97717.81;2144366;82;21252;-80
2020/12/12 11:12:35;;;;;;;16.73;13.57;;;;;;;3.80;75.11;97714.42;2145161;83;21288;-81
2020/12/12 11:15:38;;;;;;;16.93;13.60;;;;;;;3.82;75.01;97721.78;2145700;82;21161;-81
2020/12/12 11:18:39;;;;;;;18.83;13.33;;;;;;;3.87;74.96;97722.29;2146574;82;21121;-80
2020/12/12 11:21:40;;;;;;;14.10;12.07;;;;;;;3.88;74.81;97721.45;2147134;83;21141;-80
2020/12/12 11:24:42;;;;;;;15.27;13.00;;;;;;;3.83;74.65;97721.36;2147084;82;21550;-81
2020/12/12 11:27:43;;;;;;;16.20;12.70;;;;;;;3.76;74.88;97724.66;2146771;83;21181;-80
2020/12/12 11:30:44;;;;;;;14.93;12.10;;;;;;;3.68;74.92;97730.95;2146296;82;21125;-81
2020/12/12 11:33:47;;;;;;;17.87;13.63;;;;;;;3.64;75.07;97734.30;2146284;82;21112;-80
2020/12/12 11:37:08;;;;;;;17.30;13.17;;;;;;;3.58;75.32;97733.30;2146273;82;21473;-80
2020/12/12 11:40:12;;;;;;;17.13;12.63;;;;;;;3.46;75.38;97732.16;2146430;83;21295;-81
2020/12/12 11:43:40;;;;;;;15.73;12.97;;;;;;;3.37;75.59;97728.52;2146678;83;21248;-80
2020/12/12 11:46:32;;;;;;;13.97;11.83;;;;;;;3.31;75.72;97733.12;2145855;83;21140;-80
2020/12/12 11:49:33;;;;;;;15.10;12.40;;;;;;;3.34;75.79;97734.48;2146686;83;21632;-80
2020/12/12 11:52:34;;;;;;;15.10;12.13;;;;;;;3.34;75.74;97737.48;2147003;83;21144;-81
2020/12/12 11:55:35;;;;;;;14.77;12.33;;;;;;;3.34;75.90;97734.89;2146871;82;21133;-81
2020/12/12 11:58:36;;;;;;;15.57;12.90;;;;;;;3.30;75.81;97739.11;2147006;82;21133;-80
2020/12/12 12:01:37;;;;;;;36.13;25.20;;;;;;;3.34;76.07;97744.80;2146577;82;21263;-81
2020/12/12 12:04:38;;;;;;;15.10;12.60;;;;;;;3.42;76.04;97747.13;2146403;82;21161;-80
2020/12/12 12:07:43;;;;;;;16.83;13.73;;;;;;;3.54;75.91;97750.42;2146946;82;21554;-80
2020/12/12 12:10:54;;;;;;;16.05;13.88;;;;;;;3.59;75.79;97744.08;2146191;83;21141;-80
2020/12/12 12:13:47;;;;;;;17.57;13.10;;;;;;;3.56;75.71;97750.46;2144906;83;21303;-82
2020/12/12 12:16:48;;;;;;;17.40;12.40;;;;;;;3.57;75.84;97754.78;2148748;82;21177;-81
2020/12/12 12:19:49;;;;;;;18.47;13.10;;;;;;;3.62;75.94;97752.75;2152288;83;21150;-80
2020/12/12 12:22:50;;;;;;;17.63;13.80;;;;;;;3.62;75.65;97764.78;2152838;83;21530;-81
2020/12/12 12:25:52;;;;;;;16.20;13.27;;;;;;;3.63;75.66;97763.53;2152559;83;21248;-81
2020/12/12 12:28:53;;;;;;;16.23;12.70;;;;;;;3.62;75.63;97757.91;2152700;82;21292;-80
2020/12/12 12:31:56;;;;;;;16.70;13.37;;;;;;;3.61;75.60;97756.59;2152545;83;21379;-81
2020/12/12 12:34:57;;;;;;;16.47;13.23;;;;;;;3.60;75.70;97755.72;2152698;83;21236;-81
2020/12/12 12:37:58;;;;;;;16.30;12.40;;;;;;;3.59;75.58;97758.27;2152340;83;21117;-80
2020/12/12 12:40:59;;;;;;;17.20;12.70;;;;;;;3.56;75.68;97759.49;2151971;83;21240;-81
2020/12/12 12:44:04;;;;;;;21.47;13.20;;;;;;;3.57;75.60;97767.69;2152722;83;21283;-80
2020/12/12 12:47:05;;;;;;;15.47;12.60;;;;;;;3.60;75.70;97767.33;2153409;82;21129;-82
2020/12/12 12:50:07;;;;;;;15.47;12.63;;;;;;;3.67;75.68;97770.92;2152981;82;21861;-81
2020/12/12 12:53:08;;;;;;;16.20;12.53;;;;;;;3.69;75.47;97775.27;2153342;83;21240;-80
2020/12/12 12:56:10;;;;;;;15.27;12.37;;;;;;;3.73;75.46;97768.47;2151628;83;21248;-81
2020/12/12 12:59:11;;;;;;;14.77;11.93;;;;;;;3.74;75.40;97772.80;2152932;83;21078;-82
2020/12/12 13:02:12;;;;;;;16.57;14.10;;;;;;;3.76;75.44;97772.41;2152432;83;21546;-81
2020/12/12 13:05:13;;;;;;;14.10;11.30;;;;;;;3.82;75.36;97782.86;2152821;82;21144;-80
2020/12/12 13:08:14;;;;;;;16.93;12.33;;;;;;;5.00;77.21;97772.64;2152286;83;21180;-80
2020/12/12 13:11:15;;;;;;;15.73;12.83;;;;;;;5.04;73.76;97773.14;2151408;82;21267;-81
2020/12/12 13:14:16;;;;;;;16.87;12.70;;;;;;;4.69;73.42;97776.42;2152627;83;21672;-81
2020/12/12 13:17:17;;;;;;;14.07;11.77;;;;;;;4.44;73.40;97775.10;2149600;82;21295;-80
2020/12/12 13:20:24;;;;;;;17.80;13.57;;;;;;;4.26;73.49;97779.89;2147281;83;21125;-80
2020/12/12 13:23:23;;;;;;;16.75;12.47;;;;;;;4.13;73.95;97776.61;2146885;83;21392;-80
2020/12/12 13:26:24;;;;;;;14.37;11.63;;;;;;;4.03;74.05;97786.30;2147421;82;21251;-81
2020/12/12 13:32:58;;;;;;;16.30;12.63;;;;;;;3.80;74.30;97789.28;2084371;83;21160;-82
2020/12/12 13:35:59;;;;;;;17.13;13.40;;;;;;;3.64;74.40;97790.20;2147613;82;21141;-80
2020/12/12 13:39:00;;;;;;;18.40;13.40;;;;;;;3.54;74.75;97798.16;2147358;82;21383;-81
2020/12/12 13:42:01;;;;;;;18.87;14.90;;;;;;;3.49;75.02;97795.89;2147697;82;21117;-81
2020/12/12 13:45:02;;;;;;;21.33;14.50;;;;;;;3.50;75.24;97790.77;2147665;82;21133;-81
2020/12/12 13:48:04;;;;;;;16.97;12.83;;;;;;;3.51;75.16;97793.80;2147482;82;21169;-80
2020/12/12 13:51:05;;;;;;;18.83;14.47;;;;;;;3.49;75.02;97789.45;2146933;82;21129;-80
2020/12/12 13:54:06;;;;;;;19.60;15.03;;;;;;;3.47;75.15;97792.41;2146974;83;21255;-80
2020/12/12 13:57:07;;;;;;;20.17;15.77;;;;;;;3.47;75.24;97797.56;2146761;82;21411;-80
2020/12/12 14:00:08;;;;;;;19.93;16.00;;;;;;;3.44;75.26;97791.02;2146509;82;21123;-81
2020/12/12 14:03:09;;;;;;;20.87;14.63;;;;;;;3.39;75.42;97791.33;2146526;82;21241;-79
2020/12/12 14:06:11;;;;;;;17.23;12.43;;;;;;;3.61;76.06;97792.30;2146235;82;21133;-78